createdAt,value
2019-03-02T00:02:00.689Z,43.3
2019-03-02T00:06:57.858Z,43.1
2019-03-02T00:11:56.432Z,43.2
2019-03-02T00:16:52.336Z,43.1
2019-03-02T00:21:49.624Z,43
2019-03-02T00:26:47.166Z,42.9
2019-03-02T00:31:44.261Z,42.9
2019-03-02T00:36:41.630Z,43
2019-03-02T00:41:42.056Z,43.4
2019-03-02T00:46:36.118Z,43.4
2019-03-02T00:51:33.528Z,43.6
2019-03-02T00:56:31.118Z,43.7
2019-03-02T01:01:28.749Z,43.8
2019-03-02T01:06:25.893Z,43.7
2019-03-02T01:11:23.533Z,43.4
2019-03-02T01:16:21.396Z,44
2019-03-02T01:21:18.541Z,43.4
2019-03-02T01:26:16.361Z,44.1
2019-03-02T01:31:13.430Z,44
2019-03-02T01:36:10.661Z,44.8
2019-03-02T01:41:08.014Z,44.5
2019-03-02T01:46:05.563Z,44.8
2019-03-02T01:51:03.274Z,44.7
2019-03-02T01:56:02.668Z,44.8
2019-03-02T02:00:58.750Z,45.1
2019-03-02T02:05:56.123Z,45
2019-03-02T02:10:53.774Z,44.9
2019-03-02T02:15:51.431Z,45.1
2019-03-02T02:20:50.253Z,45.4
2019-03-02T02:25:46.293Z,45.7
2019-03-02T02:30:43.352Z,45.9
2019-03-02T02:35:41.685Z,45.9
2019-03-02T02:40:38.702Z,45.9
2019-03-02T02:45:36.281Z,46.1
2019-03-02T02:50:34.029Z,46
2019-03-02T02:55:35.961Z,46
2019-03-02T03:00:28.947Z,46.1
2019-03-02T03:05:26.564Z,46.3
2019-03-02T03:10:27.696Z,46.1
2019-03-02T03:15:21.778Z,46.2
2019-03-02T03:20:19.246Z,45.8
2019-03-02T03:25:17.975Z,46
2019-03-02T03:30:14.452Z,45.8
2019-03-02T03:35:16.787Z,45.9
2019-03-02T03:40:09.401Z,46.3
2019-03-02T03:45:06.996Z,46.3
2019-03-02T03:50:09.083Z,46.7
2019-03-02T03:55:02.059Z,46.3
2019-03-02T04:00:00.518Z,47
2019-03-02T04:04:57.216Z,46.8
2019-03-02T04:09:55.229Z,46.8
2019-03-02T04:14:56.780Z,46.9
2019-03-02T04:19:50.410Z,47.2
2019-03-02T04:24:47.433Z,47.6
2019-03-02T04:29:49.752Z,47.4
2019-03-02T04:34:42.241Z,46.8
2019-03-02T04:39:39.076Z,46
2019-03-02T04:44:36.449Z,46.3
2019-03-02T04:49:33.886Z,46.4
2019-03-02T04:54:37.182Z,47.6
2019-03-02T04:59:28.839Z,47.7
2019-03-02T05:04:28.668Z,47.4
2019-03-02T05:09:23.613Z,47.8
2019-03-02T05:14:21.253Z,47.9
2019-03-02T05:19:18.693Z,47.6
2019-03-02T05:24:16.114Z,48.4
2019-03-02T05:29:14.740Z,48.3
2019-03-02T05:34:10.584Z,48.4
2019-03-02T05:39:08.724Z,48.4
2019-03-02T05:44:05.763Z,48.1
2019-03-02T05:49:03.387Z,48
2019-03-02T05:54:02.538Z,47.8
2019-03-02T05:58:58.544Z,47.9
2019-03-02T06:03:56.429Z,47.8
2019-03-02T06:08:53.698Z,47.8
2019-03-02T06:13:51.122Z,47.8
2019-03-02T06:18:48.362Z,47.9
2019-03-02T06:23:46.123Z,47.9
2019-03-02T06:28:43.521Z,47.8
2019-03-02T06:33:44.023Z,47.8
2019-03-02T06:38:38.523Z,48
2019-03-02T06:43:35.809Z,48
2019-03-02T06:48:33.394Z,48.2
2019-03-02T06:53:33.945Z,48.1
2019-03-02T06:58:29.430Z,48.2
2019-03-02T07:03:25.559Z,48.4
2019-03-02T07:08:25.326Z,48.6
2019-03-02T07:13:21.132Z,48.6
2019-03-02T07:18:18.548Z,48.7
2019-03-02T07:23:16.202Z,48.9
2019-03-02T07:28:14.305Z,49
2019-03-02T07:33:11.259Z,49
2019-03-02T07:38:09.178Z,49.2
2019-03-02T07:43:09.639Z,49.2
2019-03-02T07:48:04.211Z,49.1
2019-03-02T07:53:02.656Z,49.1
2019-03-02T07:58:00.524Z,49.1
2019-03-02T08:02:58.725Z,49.2
2019-03-02T08:07:56.555Z,49.2
2019-03-02T08:12:57.704Z,49.1
2019-03-02T08:17:51.680Z,49.1
2019-03-02T08:22:49.970Z,49
2019-03-02T08:27:48.141Z,48.9
2019-03-02T08:32:46.255Z,48.8
2019-03-02T08:37:44.713Z,48.8
2019-03-02T08:42:42.575Z,48.4
2019-03-02T08:47:40.922Z,46.9
2019-03-02T08:52:39.011Z,46.3
2019-03-02T08:57:37.182Z,46.2
2019-03-02T09:02:35.271Z,46
2019-03-02T09:07:35.571Z,45.6
2019-03-02T09:12:31.677Z,45.9
2019-03-02T09:17:29.532Z,45.5
2019-03-02T09:22:28.250Z,45.6
2019-03-02T09:27:26.795Z,44.9
2019-03-02T09:32:25.087Z,44.7
2019-03-02T09:37:23.338Z,44.2
2019-03-02T09:42:20.792Z,43.5
2019-03-02T09:47:18.201Z,43.6
2019-03-02T09:52:16.833Z,43
2019-03-02T09:57:14.849Z,42.2
2019-03-02T10:02:14.347Z,42.4
2019-03-02T10:07:09.916Z,42.3
2019-03-02T10:12:09.903Z,42
2019-03-02T10:17:04.889Z,42.8
2019-03-02T10:22:03.465Z,42.8
2019-03-02T10:27:01.498Z,42.7
2019-03-02T10:31:59.526Z,43
2019-03-02T10:36:57.585Z,42.8
2019-03-02T10:41:56.687Z,42.3
2019-03-02T10:46:53.451Z,41
2019-03-02T10:51:50.984Z,41.2
2019-03-02T10:56:48.698Z,41.6
2019-03-02T11:01:46.742Z,41.1
2019-03-02T11:06:45.110Z,40.8
2019-03-02T11:11:41.967Z,41.2
2019-03-02T11:16:41.080Z,41.8
2019-03-02T11:21:38.166Z,41.6
2019-03-02T11:26:36.871Z,41.3
2019-03-02T11:31:35.334Z,40.2
2019-03-02T11:36:32.684Z,40
2019-03-02T11:41:30.735Z,39.5
2019-03-02T11:46:28.452Z,39.3
2019-03-02T11:51:27.978Z,37.6
2019-03-02T11:56:27.144Z,37.5
2019-03-02T12:01:22.288Z,37.5
2019-03-02T12:06:19.761Z,37.5
2019-03-02T12:11:17.356Z,37.2
2019-03-02T12:16:14.940Z,36.5
2019-03-02T12:21:13.290Z,36.5
2019-03-02T12:26:11.983Z,35.9
2019-03-02T12:31:09.563Z,35.5
2019-03-02T12:36:07.707Z,35
2019-03-02T12:41:05.436Z,34.8
2019-03-02T12:46:04.968Z,35.5
2019-03-02T12:51:02.803Z,35.7
2019-03-02T12:55:58.777Z,35.6
2019-03-02T13:00:56.438Z,35.1
2019-03-02T13:05:57.461Z,34.8
2019-03-02T13:10:53.360Z,35.3
2019-03-02T13:15:49.444Z,35.2
2019-03-02T13:20:47.188Z,34.1
2019-03-02T13:25:45.056Z,33.6
2019-03-02T13:30:42.771Z,32.2
2019-03-02T13:35:40.709Z,31.2
2019-03-02T13:40:39.274Z,31.6
2019-03-02T13:45:37.325Z,32.4
2019-03-02T13:50:35.239Z,32.5
2019-03-02T13:55:33.253Z,32.8
2019-03-02T14:00:31.129Z,33.4
2019-03-02T14:05:28.592Z,33.9
2019-03-02T14:10:26.454Z,34
2019-03-02T14:15:24.127Z,34
2019-03-02T14:20:24.728Z,33.7
2019-03-02T14:25:22.739Z,33.3
2019-03-02T14:30:16.953Z,32.9
2019-03-02T14:35:16.321Z,32.9
2019-03-02T14:40:14.559Z,33.2
2019-03-02T14:45:10.790Z,32.2
2019-03-02T14:50:08.158Z,32.8
2019-03-02T14:55:04.643Z,33.5
2019-03-02T15:00:02.078Z,33.7
2019-03-02T15:04:59.197Z,33.7
2019-03-02T15:09:56.615Z,33.5
2019-03-02T15:14:54.142Z,33.2
2019-03-02T15:19:57.177Z,33.5
2019-03-02T15:24:52.936Z,33.8
2019-03-02T15:29:50.255Z,33.8
2019-03-02T15:34:49.530Z,33.7
2019-03-02T15:39:44.551Z,33.9
2019-03-02T15:44:42.868Z,34.5
2019-03-02T15:49:41.429Z,34.4
2019-03-02T15:54:37.518Z,34.4
2019-03-02T15:59:35.949Z,34.8
2019-03-02T16:04:35.264Z,35
2019-03-02T16:09:30.362Z,35.1
2019-03-02T16:14:28.877Z,35.2
2019-03-02T16:19:29.051Z,35.1
2019-03-02T16:24:23.723Z,35.1
2019-03-02T16:29:21.170Z,35.4
2019-03-02T16:34:19.652Z,35.6
2019-03-02T16:39:16.879Z,35.7
2019-03-02T16:44:14.300Z,36.1
2019-03-02T16:49:12.470Z,35.8
2019-03-02T16:54:10.252Z,35.8
2019-03-02T16:59:07.430Z,36
2019-03-02T17:04:04.610Z,36.2
2019-03-02T17:09:02.572Z,36.5
2019-03-02T17:14:00.042Z,36.7
2019-03-02T17:18:57.751Z,36.7
2019-03-02T17:23:56.245Z,36.9
2019-03-02T17:28:53.365Z,36.9
2019-03-02T17:33:50.496Z,37.1
2019-03-02T17:38:51.203Z,37.2
2019-03-02T17:43:46.595Z,37.4
2019-03-02T17:48:42.077Z,37.6
2019-03-02T17:53:40.744Z,37.6
2019-03-02T17:58:37.996Z,37.7
2019-03-02T18:03:34.969Z,37.8
2019-03-02T18:08:32.553Z,37.6
2019-03-02T18:13:35.388Z,37.8
2019-03-02T18:18:27.895Z,38
2019-03-02T18:23:25.971Z,38.3
2019-03-02T18:28:24.454Z,38.3
2019-03-02T18:33:22.348Z,38.6
2019-03-02T18:38:20.233Z,38.5
2019-03-02T18:43:17.581Z,38.7
2019-03-02T18:48:15.502Z,38.9
2019-03-02T18:53:13.560Z,38.9
2019-03-02T18:58:11.130Z,38.9
2019-03-02T19:03:08.297Z,39.2
2019-03-02T19:08:05.725Z,39.5
2019-03-02T19:13:04.921Z,39.4
2019-03-02T19:18:01.353Z,39.3
2019-03-02T19:22:58.895Z,39.3
2019-03-02T19:27:56.208Z,39.4
2019-03-02T19:32:53.415Z,39.6
2019-03-02T19:37:50.811Z,39.5
2019-03-02T19:42:48.816Z,39.6
2019-03-02T19:47:46.716Z,39.6
2019-03-02T19:52:45.039Z,39.6
2019-03-02T19:57:42.748Z,39.8
2019-03-02T20:02:40.820Z,40.1
2019-03-02T20:07:38.076Z,40.2
2019-03-02T20:12:36.015Z,40.5
2019-03-02T20:17:33.393Z,40.6
2019-03-02T20:22:31.259Z,40.6
2019-03-02T20:27:29.058Z,40.8
2019-03-02T20:32:27.051Z,40.8
2019-03-02T20:37:25.528Z,41.1
2019-03-02T20:42:23.270Z,41
2019-03-02T20:47:21.094Z,41.1
2019-03-02T20:52:18.532Z,41
2019-03-02T20:57:15.872Z,41
2019-03-02T21:02:13.154Z,41.3
2019-03-02T21:07:15.117Z,41.1
2019-03-02T21:12:11.603Z,41.2
2019-03-02T21:17:08.736Z,41.3
2019-03-02T21:22:06.165Z,41.6
2019-03-02T21:27:04.278Z,42
2019-03-02T21:32:01.844Z,42.2
2019-03-02T21:36:58.905Z,42.3
2019-03-02T21:41:56.346Z,42.3
2019-03-02T21:46:53.960Z,42.2
2019-03-02T21:51:51.171Z,42.5
2019-03-02T21:56:49.334Z,42.4
2019-03-02T22:01:46.750Z,42.4
2019-03-02T22:06:44.040Z,42.6
2019-03-02T22:11:42.136Z,42.6
2019-03-02T22:16:39.991Z,42.6
2019-03-02T22:21:37.814Z,42.6
2019-03-02T22:26:36.202Z,43
2019-03-02T22:31:33.399Z,43.2
2019-03-02T22:36:30.682Z,43.2
2019-03-02T22:41:27.839Z,43.6
2019-03-02T22:46:25.263Z,43.4
2019-03-02T22:51:23.085Z,43.7
2019-03-02T22:56:20.953Z,43.7
2019-03-02T23:01:18.417Z,43.6
2019-03-02T23:06:15.987Z,43.9
2019-03-02T23:11:12.975Z,44
2019-03-02T23:16:10.496Z,44.3
2019-03-02T23:21:08.326Z,44.7
2019-03-02T23:26:06.609Z,44.8
2019-03-02T23:31:04.403Z,45.2
2019-03-02T23:36:03.127Z,45.9
2019-03-02T23:41:00.813Z,45.7
2019-03-02T23:45:58.688Z,45.8
2019-03-02T23:50:56.455Z,46.9
2019-03-02T23:55:54.836Z,48
